sensor_id;sensor_type;location;lat;lon;timestamp;P1;durP1;ratioP1;P2;durP2;ratioP2
20399;SDS011;10359;53.596;22.520;2023-08-30T05:38:37;23.47;;;14.43;;
20399;SDS011;10359;53.596;22.520;2023-08-30T05:41:06;19.93;;;13.03;;
20399;SDS011;10359;53.596;22.520;2023-08-30T05:43:36;20.93;;;12.43;;
20399;SDS011;10359;53.596;22.520;2023-08-30T05:46:05;20.97;;;13.37;;
20399;SDS011;10359;53.596;22.520;2023-08-30T05:48:42;20.20;;;13.07;;
20399;SDS011;10359;53.596;22.520;2023-08-30T05:51:12;16.03;;;11.87;;
20399;SDS011;10359;53.596;22.520;2023-08-30T05:53:43;17.37;;;10.87;;
20399;SDS011;10359;53.596;22.520;2023-08-30T05:56:12;14.90;;;11.53;;
20399;SDS011;10359;53.596;22.520;2023-08-30T05:58:41;15.47;;;11.10;;
20399;SDS011;10359;53.596;22.520;2023-08-30T06:01:10;16.43;;;12.23;;
20399;SDS011;10359;53.596;22.520;2023-08-30T06:03:40;18.63;;;13.03;;
20399;SDS011;10359;53.596;22.520;2023-08-30T06:06:09;17.47;;;12.77;;
20399;SDS011;10359;53.596;22.520;2023-08-30T06:08:39;15.30;;;12.53;;
20399;SDS011;10359;53.596;22.520;2023-08-30T06:11:09;21.77;;;13.30;;
20399;SDS011;10359;53.596;22.520;2023-08-30T06:13:39;17.93;;;13.87;;
20399;SDS011;10359;53.596;22.520;2023-08-30T06:16:09;18.93;;;13.10;;
20399;SDS011;10359;53.596;22.520;2023-08-30T06:18:38;14.27;;;11.83;;
20399;SDS011;10359;53.596;22.520;2023-08-30T06:21:08;16.23;;;12.40;;
20399;SDS011;10359;53.596;22.520;2023-08-30T06:23:37;16.03;;;11.57;;
20399;SDS011;10359;53.596;22.520;2023-08-30T06:26:07;14.43;;;12.10;;
20399;SDS011;10359;53.596;22.520;2023-08-30T06:28:38;15.67;;;13.33;;
20399;SDS011;10359;53.596;22.520;2023-08-30T06:31:08;13.70;;;11.87;;
20399;SDS011;10359;53.596;22.520;2023-08-30T06:33:39;16.23;;;12.07;;
20399;SDS011;10359;53.596;22.520;2023-08-30T06:36:08;15.20;;;12.27;;
20399;SDS011;10359;53.596;22.520;2023-08-30T06:38:38;15.47;;;11.60;;
20399;SDS011;10359;53.596;22.520;2023-08-30T06:41:07;13.63;;;10.90;;
20399;SDS011;10359;53.596;22.520;2023-08-30T06:43:38;14.67;;;12.10;;
20399;SDS011;10359;53.596;22.520;2023-08-30T06:46:07;16.47;;;12.80;;
20399;SDS011;10359;53.596;22.520;2023-08-30T06:48:37;15.30;;;11.93;;
20399;SDS011;10359;53.596;22.520;2023-08-30T06:51:06;15.80;;;12.53;;
20399;SDS011;10359;53.596;22.520;2023-08-30T06:53:35;13.10;;;10.97;;
20399;SDS011;10359;53.596;22.520;2023-08-30T06:56:05;12.05;;;10.80;;
20399;SDS011;10359;53.596;22.520;2023-08-30T06:58:34;11.63;;;10.43;;
20399;SDS011;10359;53.596;22.520;2023-08-30T07:01:05;13.17;;;11.23;;
20399;SDS011;10359;53.596;22.520;2023-08-30T07:03:34;12.13;;;10.93;;
20399;SDS011;10359;53.596;22.520;2023-08-30T07:06:03;12.23;;;11.03;;
20399;SDS011;10359;53.596;22.520;2023-08-30T07:08:32;13.40;;;11.40;;
20399;SDS011;10359;53.596;22.520;2023-08-30T07:11:02;14.00;;;11.57;;
20399;SDS011;10359;53.596;22.520;2023-08-30T07:13:37;13.95;;;11.93;;
20399;SDS011;10359;53.596;22.520;2023-08-30T07:27:24;12.98;;;11.43;;
20399;SDS011;10359;53.596;22.520;2023-08-30T07:29:55;12.45;;;11.07;;
20399;SDS011;10359;53.596;22.520;2023-08-30T07:32:24;13.70;;;11.55;;
20399;SDS011;10359;53.596;22.520;2023-08-30T07:34:54;13.23;;;11.23;;
20399;SDS011;10359;53.596;22.520;2023-08-30T07:37:23;12.70;;;10.52;;
20399;SDS011;10359;53.596;22.520;2023-08-30T07:39:53;12.95;;;11.57;;
20399;SDS011;10359;53.596;22.520;2023-08-30T07:42:24;13.30;;;11.02;;
20399;SDS011;10359;53.596;22.520;2023-08-30T07:44:53;12.02;;;10.55;;
20399;SDS011;10359;53.596;22.520;2023-08-30T07:47:23;12.48;;;10.82;;
20399;SDS011;10359;53.596;22.520;2023-08-30T07:49:52;14.20;;;11.13;;
20399;SDS011;10359;53.596;22.520;2023-08-30T07:52:21;13.27;;;11.32;;
20399;SDS011;10359;53.596;22.520;2023-08-30T07:55:09;12.50;;;10.35;;
20399;SDS011;10359;53.596;22.520;2023-08-30T07:57:39;12.48;;;11.25;;
20399;SDS011;10359;53.596;22.520;2023-08-30T08:00:09;12.68;;;11.30;;
20399;SDS011;10359;53.596;22.520;2023-08-30T08:02:39;12.30;;;10.48;;
20399;SDS011;10359;53.596;22.520;2023-08-30T08:05:09;12.20;;;11.00;;
20399;SDS011;10359;53.596;22.520;2023-08-30T08:07:38;13.90;;;10.60;;
20399;SDS011;10359;53.596;22.520;2023-08-30T08:10:10;11.88;;;10.38;;
20399;SDS011;10359;53.596;22.520;2023-08-30T08:12:41;12.20;;;10.93;;
20399;SDS011;10359;53.596;22.520;2023-08-30T08:15:11;12.68;;;11.40;;
20399;SDS011;10359;53.596;22.520;2023-08-30T08:17:40;12.02;;;10.82;;
20399;SDS011;10359;53.596;22.520;2023-08-30T08:20:10;12.98;;;11.65;;
20399;SDS011;10359;53.596;22.520;2023-08-30T08:22:40;12.35;;;11.10;;
20399;SDS011;10359;53.596;22.520;2023-08-30T08:25:10;13.60;;;12.20;;
20399;SDS011;10359;53.596;22.520;2023-08-30T08:27:41;11.98;;;10.02;;
20399;SDS011;10359;53.596;22.520;2023-08-30T08:30:11;13.13;;;11.18;;
20399;SDS011;10359;53.596;22.520;2023-08-30T08:32:41;12.35;;;10.65;;
20399;SDS011;10359;53.596;22.520;2023-08-30T08:35:11;10.65;;;9.55;;
20399;SDS011;10359;53.596;22.520;2023-08-30T08:37:41;11.98;;;10.13;;
20399;SDS011;10359;53.596;22.520;2023-08-30T08:40:10;11.18;;;9.80;;
20399;SDS011;10359;53.596;22.520;2023-08-30T08:42:43;12.50;;;11.30;;
20399;SDS011;10359;53.596;22.520;2023-08-30T08:45:14;13.65;;;10.93;;
20399;SDS011;10359;53.596;22.520;2023-08-30T08:47:43;11.82;;;10.73;;
20399;SDS011;10359;53.596;22.520;2023-08-30T08:50:15;10.57;;;9.43;;
20399;SDS011;10359;53.596;22.520;2023-08-30T08:52:45;11.65;;;10.35;;
20399;SDS011;10359;53.596;22.520;2023-08-30T08:55:26;13.43;;;10.48;;
20399;SDS011;10359;53.596;22.520;2023-08-30T08:57:58;11.40;;;10.27;;
20399;SDS011;10359;53.596;22.520;2023-08-30T09:00:29;12.93;;;10.18;;
20399;SDS011;10359;53.596;22.520;2023-08-30T09:02:59;12.45;;;10.60;;
20399;SDS011;10359;53.596;22.520;2023-08-30T09:05:31;11.23;;;9.88;;
20399;SDS011;10359;53.596;22.520;2023-08-30T09:08:03;11.70;;;10.50;;
20399;SDS011;10359;53.596;22.520;2023-08-30T09:10:34;10.38;;;9.38;;
20399;SDS011;10359;53.596;22.520;2023-08-30T09:13:05;11.40;;;9.82;;
20399;SDS011;10359;53.596;22.520;2023-08-30T09:15:35;12.10;;;10.38;;
20399;SDS011;10359;53.596;22.520;2023-08-30T09:18:13;15.93;;;10.40;;
20399;SDS011;10359;53.596;22.520;2023-08-30T09:20:44;11.43;;;10.32;;
20399;SDS011;10359;53.596;22.520;2023-08-30T09:23:16;12.05;;;10.88;;
20399;SDS011;10359;53.596;22.520;2023-08-30T09:25:54;12.23;;;10.73;;
20399;SDS011;10359;53.596;22.520;2023-08-30T09:28:25;11.55;;;10.35;;
20399;SDS011;10359;53.596;22.520;2023-08-30T09:30:56;10.95;;;9.85;;
20399;SDS011;10359;53.596;22.520;2023-08-30T09:33:44;11.00;;;9.52;;
20399;SDS011;10359;53.596;22.520;2023-08-30T09:36:15;10.77;;;9.75;;
20399;SDS011;10359;53.596;22.520;2023-08-30T09:38:48;10.90;;;9.80;;
20399;SDS011;10359;53.596;22.520;2023-08-30T09:41:19;11.55;;;9.98;;
20399;SDS011;10359;53.596;22.520;2023-08-30T09:43:50;10.45;;;9.45;;
20399;SDS011;10359;53.596;22.520;2023-08-30T09:46:41;11.43;;;10.25;;
20399;SDS011;10359;53.596;22.520;2023-08-30T09:49:20;13.52;;;9.90;;
20399;SDS011;10359;53.596;22.520;2023-08-30T09:51:51;10.55;;;9.50;;
20399;SDS011;10359;53.596;22.520;2023-08-30T09:54:22;12.23;;;10.05;;
20399;SDS011;10359;53.596;22.520;2023-08-30T09:57:05;11.60;;;9.77;;
20399;SDS011;10359;53.596;22.520;2023-08-30T09:59:36;10.48;;;9.15;;
20399;SDS011;10359;53.596;22.520;2023-08-30T10:02:08;10.18;;;9.23;;
20399;SDS011;10359;53.596;22.520;2023-08-30T10:04:38;9.63;;;8.63;;
20399;SDS011;10359;53.596;22.520;2023-08-30T10:07:08;10.43;;;8.20;;
20399;SDS011;10359;53.596;22.520;2023-08-30T10:09:38;10.10;;;9.05;;
20399;SDS011;10359;53.596;22.520;2023-08-30T10:12:20;11.88;;;9.15;;
20399;SDS011;10359;53.596;22.520;2023-08-30T10:14:52;10.90;;;9.52;;
20399;SDS011;10359;53.596;22.520;2023-08-30T10:17:23;12.57;;;9.30;;
20399;SDS011;10359;53.596;22.520;2023-08-30T10:19:55;9.55;;;8.65;;
20399;SDS011;10359;53.596;22.520;2023-08-30T10:22:25;9.98;;;8.90;;
20399;SDS011;10359;53.596;22.520;2023-08-30T10:24:56;11.45;;;8.95;;
20399;SDS011;10359;53.596;22.520;2023-08-30T10:27:38;11.93;;;8.10;;
20399;SDS011;10359;53.596;22.520;2023-08-30T10:30:12;7.80;;;7.07;;
20399;SDS011;10359;53.596;22.520;2023-08-30T10:32:43;8.52;;;7.65;;
20399;SDS011;10359;53.596;22.520;2023-08-30T10:35:14;9.32;;;7.50;;
20399;SDS011;10359;53.596;22.520;2023-08-30T10:37:53;8.30;;;7.50;;
20399;SDS011;10359;53.596;22.520;2023-08-30T10:40:23;9.60;;;6.65;;
20399;SDS011;10359;53.596;22.520;2023-08-30T10:42:59;6.95;;;6.32;;
20399;SDS011;10359;53.596;22.520;2023-08-30T10:45:32;6.93;;;6.15;;
20399;SDS011;10359;53.596;22.520;2023-08-30T10:48:01;7.13;;;5.82;;
20399;SDS011;10359;53.596;22.520;2023-08-30T10:50:31;6.10;;;5.50;;
20399;SDS011;10359;53.596;22.520;2023-08-30T10:53:02;6.68;;;5.53;;
20399;SDS011;10359;53.596;22.520;2023-08-30T10:55:33;7.00;;;6.18;;
20399;SDS011;10359;53.596;22.520;2023-08-30T10:58:03;7.00;;;6.07;;
20399;SDS011;10359;53.596;22.520;2023-08-30T11:00:34;9.48;;;6.50;;
20399;SDS011;10359;53.596;22.520;2023-08-30T11:03:04;7.07;;;6.47;;
20399;SDS011;10359;53.596;22.520;2023-08-30T11:05:40;7.65;;;6.78;;
20399;SDS011;10359;53.596;22.520;2023-08-30T11:08:10;7.35;;;6.63;;
20399;SDS011;10359;53.596;22.520;2023-08-30T11:10:40;6.75;;;5.93;;
20399;SDS011;10359;53.596;22.520;2023-08-30T11:13:10;7.30;;;6.70;;
20399;SDS011;10359;53.596;22.520;2023-08-30T11:15:45;6.65;;;6.00;;
20399;SDS011;10359;53.596;22.520;2023-08-30T11:18:18;6.95;;;6.28;;
20399;SDS011;10359;53.596;22.520;2023-08-30T11:20:53;7.28;;;6.45;;
20399;SDS011;10359;53.596;22.520;2023-08-30T11:23:26;6.90;;;6.18;;
20399;SDS011;10359;53.596;22.520;2023-08-30T11:25:56;7.28;;;6.65;;
20399;SDS011;10359;53.596;22.520;2023-08-30T11:28:25;6.30;;;5.80;;
20399;SDS011;10359;53.596;22.520;2023-08-30T11:30:56;9.52;;;5.93;;
20399;SDS011;10359;53.596;22.520;2023-08-30T11:33:25;6.68;;;6.07;;
20399;SDS011;10359;53.596;22.520;2023-08-30T11:50:38;6.22;;;5.63;;
20399;SDS011;10359;53.596;22.520;2023-08-30T11:53:16;7.18;;;6.57;;
20399;SDS011;10359;53.596;22.520;2023-08-30T11:55:48;7.05;;;6.20;;
20399;SDS011;10359;53.596;22.520;2023-08-30T11:58:18;7.53;;;5.72;;
20399;SDS011;10359;53.596;22.520;2023-08-30T12:00:48;6.28;;;5.68;;
20399;SDS011;10359;53.596;22.520;2023-08-30T12:03:20;7.57;;;6.88;;
20399;SDS011;10359;53.596;22.520;2023-08-30T12:05:51;7.97;;;6.10;;
20399;SDS011;10359;53.596;22.520;2023-08-30T12:08:20;6.80;;;6.20;;
20399;SDS011;10359;53.596;22.520;2023-08-30T12:10:51;8.02;;;5.93;;
20399;SDS011;10359;53.596;22.520;2023-08-30T12:13:22;6.55;;;5.95;;
20399;SDS011;10359;53.596;22.520;2023-08-30T12:15:52;6.55;;;5.95;;
20399;SDS011;10359;53.596;22.520;2023-08-30T12:18:21;7.85;;;6.30;;
20399;SDS011;10359;53.596;22.520;2023-08-30T12:20:58;7.00;;;6.05;;
20399;SDS011;10359;53.596;22.520;2023-08-30T12:23:28;6.32;;;5.72;;
20399;SDS011;10359;53.596;22.520;2023-08-30T12:25:59;9.60;;;6.68;;
20399;SDS011;10359;53.596;22.520;2023-08-30T12:39:44;9.60;;;7.65;;
20399;SDS011;10359;53.596;22.520;2023-08-30T12:42:14;11.05;;;8.30;;
20399;SDS011;10359;53.596;22.520;2023-08-30T12:44:43;8.18;;;7.28;;
20399;SDS011;10359;53.596;22.520;2023-08-30T12:47:13;11.80;;;7.68;;
20399;SDS011;10359;53.596;22.520;2023-08-30T12:49:42;8.65;;;7.75;;
20399;SDS011;10359;53.596;22.520;2023-08-30T12:52:12;8.98;;;8.00;;
20399;SDS011;10359;53.596;22.520;2023-08-30T12:54:42;9.23;;;7.50;;
20399;SDS011;10359;53.596;22.520;2023-08-30T12:57:12;8.55;;;7.70;;
20399;SDS011;10359;53.596;22.520;2023-08-30T12:59:41;8.07;;;6.80;;
20399;SDS011;10359;53.596;22.520;2023-08-30T13:02:11;8.05;;;6.88;;
20399;SDS011;10359;53.596;22.520;2023-08-30T13:04:40;8.50;;;7.53;;
20399;SDS011;10359;53.596;22.520;2023-08-30T13:07:09;7.95;;;7.10;;
20399;SDS011;10359;53.596;22.520;2023-08-30T13:09:39;9.52;;;7.55;;
20399;SDS011;10359;53.596;22.520;2023-08-30T13:12:10;8.50;;;7.65;;
20399;SDS011;10359;53.596;22.520;2023-08-30T13:14:39;7.85;;;7.13;;
20399;SDS011;10359;53.596;22.520;2023-08-30T13:17:08;9.48;;;7.97;;
20399;SDS011;10359;53.596;22.520;2023-08-30T13:19:38;8.98;;;7.60;;
20399;SDS011;10359;53.596;22.520;2023-08-30T13:22:07;8.32;;;7.53;;
20399;SDS011;10359;53.596;22.520;2023-08-30T13:24:37;8.05;;;7.25;;
20399;SDS011;10359;53.596;22.520;2023-08-30T13:27:06;9.20;;;8.40;;
20399;SDS011;10359;53.596;22.520;2023-08-30T13:29:38;8.57;;;7.75;;
20399;SDS011;10359;53.596;22.520;2023-08-30T13:32:07;9.52;;;7.88;;
20399;SDS011;10359;53.596;22.520;2023-08-30T13:34:37;9.85;;;7.95;;
20399;SDS011;10359;53.596;22.520;2023-08-30T13:37:10;8.75;;;7.63;;
20399;SDS011;10359;53.596;22.520;2023-08-30T13:39:40;8.90;;;8.00;;
20399;SDS011;10359;53.596;22.520;2023-08-30T13:42:10;9.65;;;8.65;;
20399;SDS011;10359;53.596;22.520;2023-08-30T13:44:41;9.25;;;8.35;;
20399;SDS011;10359;53.596;22.520;2023-08-30T13:47:12;9.23;;;8.32;;
20399;SDS011;10359;53.596;22.520;2023-08-30T13:49:43;10.50;;;9.45;;
20399;SDS011;10359;53.596;22.520;2023-08-30T13:52:13;9.82;;;8.38;;
20399;SDS011;10359;53.596;22.520;2023-08-30T13:54:43;13.18;;;8.32;;
20399;SDS011;10359;53.596;22.520;2023-08-30T13:57:12;11.05;;;6.90;;
20399;SDS011;10359;53.596;22.520;2023-08-30T13:59:44;14.25;;;7.78;;
20399;SDS011;10359;53.596;22.520;2023-08-30T14:02:14;12.38;;;7.05;;
20399;SDS011;10359;53.596;22.520;2023-08-30T14:04:47;9.97;;;7.07;;
20399;SDS011;10359;53.596;22.520;2023-08-30T14:07:16;13.27;;;7.50;;
20399;SDS011;10359;53.596;22.520;2023-08-30T14:09:46;8.13;;;7.30;;
20399;SDS011;10359;53.596;22.520;2023-08-30T14:12:16;7.50;;;6.53;;
20399;SDS011;10359;53.596;22.520;2023-08-30T14:14:48;8.27;;;6.33;;
20399;SDS011;10359;53.596;22.520;2023-08-30T14:17:19;5.87;;;4.57;;
20399;SDS011;10359;53.596;22.520;2023-08-30T14:19:50;7.00;;;3.83;;
20399;SDS011;10359;53.596;22.520;2023-08-30T14:22:20;3.00;;;2.53;;
20399;SDS011;10359;53.596;22.520;2023-08-30T14:24:50;2.87;;;2.30;;
20399;SDS011;10359;53.596;22.520;2023-08-30T14:27:38;4.50;;;1.90;;
20399;SDS011;10359;53.596;22.520;2023-08-30T14:30:10;1.90;;;1.80;;
20399;SDS011;10359;53.596;22.520;2023-08-30T14:32:40;3.63;;;2.17;;
20399;SDS011;10359;53.596;22.520;2023-08-30T14:35:09;2.57;;;1.90;;
20399;SDS011;10359;53.596;22.520;2023-08-30T14:37:40;2.20;;;1.70;;
20399;SDS011;10359;53.596;22.520;2023-08-30T14:40:10;2.50;;;1.70;;
20399;SDS011;10359;53.596;22.520;2023-08-30T14:42:41;3.90;;;1.60;;
20399;SDS011;10359;53.596;22.520;2023-08-30T14:45:13;1.30;;;1.20;;
20399;SDS011;10359;53.596;22.520;2023-08-30T14:47:45;1.47;;;1.37;;
20399;SDS011;10359;53.596;22.520;2023-08-30T14:50:15;1.60;;;1.40;;
20399;SDS011;10359;53.596;22.520;2023-08-30T14:52:45;1.63;;;1.40;;
20399;SDS011;10359;53.596;22.520;2023-08-30T14:55:15;0.93;;;0.93;;
20399;SDS011;10359;53.596;22.520;2023-08-30T14:57:46;2.70;;;1.10;;
20399;SDS011;10359;53.596;22.520;2023-08-30T15:00:18;1.07;;;0.97;;
20399;SDS011;10359;53.596;22.520;2023-08-30T15:02:49;1.13;;;1.03;;
20399;SDS011;10359;53.596;22.520;2023-08-30T15:05:20;1.53;;;1.10;;
20399;SDS011;10359;53.596;22.520;2023-08-30T15:07:50;1.70;;;1.10;;
20399;SDS011;10359;53.596;22.520;2023-08-30T15:10:21;2.10;;;1.00;;
20399;SDS011;10359;53.596;22.520;2023-08-30T15:12:51;0.90;;;0.90;;
20399;SDS011;10359;53.596;22.520;2023-08-30T15:15:24;1.27;;;1.10;;
20399;SDS011;10359;53.596;22.520;2023-08-30T15:17:53;2.73;;;1.20;;
20399;SDS011;10359;53.596;22.520;2023-08-30T15:20:24;1.10;;;0.97;;
20399;SDS011;10359;53.596;22.520;2023-08-30T15:22:53;2.00;;;1.00;;
20399;SDS011;10359;53.596;22.520;2023-08-30T15:25:29;1.03;;;0.93;;
20399;SDS011;10359;53.596;22.520;2023-08-30T15:27:58;1.20;;;1.10;;
20399;SDS011;10359;53.596;22.520;2023-08-30T15:30:33;2.63;;;1.20;;
20399;SDS011;10359;53.596;22.520;2023-08-30T15:33:03;1.73;;;1.40;;
20399;SDS011;10359;53.596;22.520;2023-08-30T15:35:38;1.30;;;1.20;;
20399;SDS011;10359;53.596;22.520;2023-08-30T15:38:09;1.53;;;1.43;;
20399;SDS011;10359;53.596;22.520;2023-08-30T15:40:41;2.07;;;1.40;;
20399;SDS011;10359;53.596;22.520;2023-08-30T15:43:12;2.37;;;1.47;;
20399;SDS011;10359;53.596;22.520;2023-08-30T15:45:44;3.07;;;1.47;;
20399;SDS011;10359;53.596;22.520;2023-08-30T15:48:15;1.80;;;1.47;;
20399;SDS011;10359;53.596;22.520;2023-08-30T15:50:45;1.40;;;1.30;;
20399;SDS011;10359;53.596;22.520;2023-08-30T15:53:16;2.30;;;1.80;;
20399;SDS011;10359;53.596;22.520;2023-08-30T15:55:46;2.37;;;2.07;;
20399;SDS011;10359;53.596;22.520;2023-08-30T15:58:18;3.10;;;1.90;;
20399;SDS011;10359;53.596;22.520;2023-08-30T16:00:51;2.83;;;2.00;;
20399;SDS011;10359;53.596;22.520;2023-08-30T16:03:23;2.10;;;1.90;;
20399;SDS011;10359;53.596;22.520;2023-08-30T16:05:55;3.73;;;2.13;;
20399;SDS011;10359;53.596;22.520;2023-08-30T16:08:26;2.30;;;2.10;;
20399;SDS011;10359;53.596;22.520;2023-08-30T16:10:57;3.00;;;2.27;;
20399;SDS011;10359;53.596;22.520;2023-08-30T16:13:28;3.13;;;2.07;;
20399;SDS011;10359;53.596;22.520;2023-08-30T16:16:00;2.97;;;2.60;;
20399;SDS011;10359;53.596;22.520;2023-08-30T16:18:38;3.73;;;2.93;;
20399;SDS011;10359;53.596;22.520;2023-08-30T16:21:09;4.37;;;3.13;;
20399;SDS011;10359;53.596;22.520;2023-08-30T16:23:42;5.93;;;3.00;;
20399;SDS011;10359;53.596;22.520;2023-08-30T16:26:12;3.20;;;2.90;;
20399;SDS011;10359;53.596;22.520;2023-08-30T16:28:45;7.13;;;3.40;;
20399;SDS011;10359;53.596;22.520;2023-08-30T16:31:20;5.20;;;3.20;;
20399;SDS011;10359;53.596;22.520;2023-08-30T16:33:57;3.90;;;3.50;;
20399;SDS011;10359;53.596;22.520;2023-08-30T16:36:28;6.80;;;3.80;;
20399;SDS011;10359;53.596;22.520;2023-08-30T16:38:58;4.47;;;3.50;;
20399;SDS011;10359;53.596;22.520;2023-08-30T16:41:28;5.27;;;3.30;;
20399;SDS011;10359;53.596;22.520;2023-08-30T16:43:59;5.63;;;3.67;;
20399;SDS011;10359;53.596;22.520;2023-08-30T16:46:35;3.43;;;3.13;;
20399;SDS011;10359;53.596;22.520;2023-08-30T16:49:09;4.73;;;3.60;;
20399;SDS011;10359;53.596;22.520;2023-08-30T16:51:40;5.50;;;3.73;;
20399;SDS011;10359;53.596;22.520;2023-08-30T16:54:09;4.13;;;3.47;;
20399;SDS011;10359;53.596;22.520;2023-08-30T16:56:40;5.80;;;3.40;;
20399;SDS011;10359;53.596;22.520;2023-08-30T16:59:14;4.47;;;3.83;;
20399;SDS011;10359;53.596;22.520;2023-08-30T17:01:46;4.77;;;3.67;;
20399;SDS011;10359;53.596;22.520;2023-08-30T17:04:24;4.80;;;3.77;;
20399;SDS011;10359;53.596;22.520;2023-08-30T17:06:55;5.23;;;4.10;;
20399;SDS011;10359;53.596;22.520;2023-08-30T17:09:31;5.63;;;4.23;;
20399;SDS011;10359;53.596;22.520;2023-08-30T17:12:04;5.90;;;4.47;;
20399;SDS011;10359;53.596;22.520;2023-08-30T17:14:40;6.03;;;4.80;;
20399;SDS011;10359;53.596;22.520;2023-08-30T17:17:12;7.90;;;4.43;;
20399;SDS011;10359;53.596;22.520;2023-08-30T17:19:44;6.43;;;4.63;;
20399;SDS011;10359;53.596;22.520;2023-08-30T17:22:13;4.97;;;4.40;;
20399;SDS011;10359;53.596;22.520;2023-08-30T17:24:43;7.50;;;4.53;;
20399;SDS011;10359;53.596;22.520;2023-08-30T17:27:15;7.03;;;4.93;;
20399;SDS011;10359;53.596;22.520;2023-08-30T17:29:47;6.90;;;5.20;;
20399;SDS011;10359;53.596;22.520;2023-08-30T17:32:22;5.63;;;4.33;;
20399;SDS011;10359;53.596;22.520;2023-08-30T17:34:52;5.00;;;4.50;;
20399;SDS011;10359;53.596;22.520;2023-08-30T17:37:26;7.07;;;4.97;;
20399;SDS011;10359;53.596;22.520;2023-08-30T17:39:56;5.27;;;4.53;;
20399;SDS011;10359;53.596;22.520;2023-08-30T17:42:29;6.77;;;5.23;;
20399;SDS011;10359;53.596;22.520;2023-08-30T17:44:59;6.43;;;4.77;;
20399;SDS011;10359;53.596;22.520;2023-08-30T17:47:36;6.97;;;4.77;;
20399;SDS011;10359;53.596;22.520;2023-08-30T17:50:10;6.47;;;4.93;;
20399;SDS011;10359;53.596;22.520;2023-08-30T17:52:40;7.87;;;5.10;;
20399;SDS011;10359;53.596;22.520;2023-08-30T17:55:14;7.23;;;4.83;;
20399;SDS011;10359;53.596;22.520;2023-08-30T17:57:47;7.63;;;4.93;;
20399;SDS011;10359;53.596;22.520;2023-08-30T18:00:17;10.07;;;5.43;;
20399;SDS011;10359;53.596;22.520;2023-08-30T18:02:51;7.43;;;5.33;;
20399;SDS011;10359;53.596;22.520;2023-08-30T18:05:27;6.83;;;5.53;;
20399;SDS011;10359;53.596;22.520;2023-08-30T18:07:57;7.27;;;5.70;;
20399;SDS011;10359;53.596;22.520;2023-08-30T18:10:30;6.20;;;5.13;;
20399;SDS011;10359;53.596;22.520;2023-08-30T18:13:05;7.33;;;5.63;;
20399;SDS011;10359;53.596;22.520;2023-08-30T18:15:41;11.87;;;5.80;;
20399;SDS011;10359;53.596;22.520;2023-08-30T18:18:18;9.37;;;5.40;;
20399;SDS011;10359;53.596;22.520;2023-08-30T18:20:51;8.03;;;5.23;;
20399;SDS011;10359;53.596;22.520;2023-08-30T18:23:23;6.47;;;4.90;;
20399;SDS011;10359;53.596;22.520;2023-08-30T18:25:58;7.17;;;5.10;;
20399;SDS011;10359;53.596;22.520;2023-08-30T18:28:32;7.33;;;5.03;;
20399;SDS011;10359;53.596;22.520;2023-08-30T18:31:07;7.03;;;5.20;;
20399;SDS011;10359;53.596;22.520;2023-08-30T18:33:43;5.83;;;4.60;;
20399;SDS011;10359;53.596;22.520;2023-08-30T18:36:19;8.70;;;5.80;;
20399;SDS011;10359;53.596;22.520;2023-08-30T18:38:54;7.30;;;5.27;;
20399;SDS011;10359;53.596;22.520;2023-08-30T18:41:29;8.13;;;5.50;;
20399;SDS011;10359;53.596;22.520;2023-08-30T18:44:05;7.90;;;5.50;;
20399;SDS011;10359;53.596;22.520;2023-08-30T18:46:42;8.03;;;5.80;;
20399;SDS011;10359;53.596;22.520;2023-08-30T18:49:17;6.60;;;4.90;;
20399;SDS011;10359;53.596;22.520;2023-08-30T18:51:49;10.37;;;5.93;;
20399;SDS011;10359;53.596;22.520;2023-08-30T18:54:27;6.30;;;5.00;;
20399;SDS011;10359;53.596;22.520;2023-08-30T18:57:03;7.67;;;5.40;;
20399;SDS011;10359;53.596;22.520;2023-08-30T18:59:36;6.13;;;5.00;;
20399;SDS011;10359;53.596;22.520;2023-08-30T19:02:07;7.97;;;5.30;;
20399;SDS011;10359;53.596;22.520;2023-08-30T19:04:43;9.87;;;5.47;;
20399;SDS011;10359;53.596;22.520;2023-08-30T19:07:13;6.40;;;5.30;;
20399;SDS011;10359;53.596;22.520;2023-08-30T19:09:49;10.17;;;6.00;;
20399;SDS011;10359;53.596;22.520;2023-08-30T19:12:21;7.73;;;5.73;;
20399;SDS011;10359;53.596;22.520;2023-08-30T19:14:52;6.57;;;5.53;;
20399;SDS011;10359;53.596;22.520;2023-08-30T19:17:29;11.47;;;5.87;;
20399;SDS011;10359;53.596;22.520;2023-08-30T19:20:02;10.37;;;5.77;;
20399;SDS011;10359;53.596;22.520;2023-08-30T19:22:35;8.23;;;5.90;;
20399;SDS011;10359;53.596;22.520;2023-08-30T19:25:07;8.40;;;5.43;;
20399;SDS011;10359;53.596;22.520;2023-08-30T19:27:44;8.10;;;5.70;;
20399;SDS011;10359;53.596;22.520;2023-08-30T19:30:17;9.10;;;6.17;;
20399;SDS011;10359;53.596;22.520;2023-08-30T19:32:54;11.47;;;6.63;;
20399;SDS011;10359;53.596;22.520;2023-08-30T19:36:08;7.93;;;5.97;;
20399;SDS011;10359;53.596;22.520;2023-08-30T19:38:51;8.93;;;6.30;;
20399;SDS011;10359;53.596;22.520;2023-08-30T19:41:26;7.67;;;5.90;;
20399;SDS011;10359;53.596;22.520;2023-08-30T19:43:59;14.97;;;7.20;;
20399;SDS011;10359;53.596;22.520;2023-08-30T19:46:31;6.73;;;5.50;;
20399;SDS011;10359;53.596;22.520;2023-08-30T19:49:05;7.20;;;6.00;;
20399;SDS011;10359;53.596;22.520;2023-08-30T19:51:39;7.33;;;6.10;;
20399;SDS011;10359;53.596;22.520;2023-08-30T19:54:16;14.60;;;6.77;;
20399;SDS011;10359;53.596;22.520;2023-08-30T19:56:52;10.67;;;6.67;;
20399;SDS011;10359;53.596;22.520;2023-08-30T19:59:23;11.73;;;7.13;;
20399;SDS011;10359;53.596;22.520;2023-08-30T20:01:56;7.73;;;5.53;;
20399;SDS011;10359;53.596;22.520;2023-08-30T20:04:29;10.10;;;5.87;;
20399;SDS011;10359;53.596;22.520;2023-08-30T20:07:01;7.77;;;6.07;;
20399;SDS011;10359;53.596;22.520;2023-08-30T20:09:34;8.10;;;5.43;;
20399;SDS011;10359;53.596;22.520;2023-08-30T20:12:07;7.13;;;5.73;;
20399;SDS011;10359;53.596;22.520;2023-08-30T20:14:42;9.03;;;6.27;;
20399;SDS011;10359;53.596;22.520;2023-08-30T20:17:13;10.87;;;6.10;;
20399;SDS011;10359;53.596;22.520;2023-08-30T20:20:02;7.70;;;6.10;;
20399;SDS011;10359;53.596;22.520;2023-08-30T20:22:38;7.17;;;5.57;;
20399;SDS011;10359;53.596;22.520;2023-08-30T20:25:09;8.00;;;6.27;;
20399;SDS011;10359;53.596;22.520;2023-08-30T20:27:41;9.20;;;6.00;;
20399;SDS011;10359;53.596;22.520;2023-08-30T20:30:12;7.73;;;6.07;;
20399;SDS011;10359;53.596;22.520;2023-08-30T20:32:42;9.83;;;6.27;;
20399;SDS011;10359;53.596;22.520;2023-08-30T20:35:14;6.90;;;6.03;;
20399;SDS011;10359;53.596;22.520;2023-08-30T20:37:50;8.17;;;6.07;;
20399;SDS011;10359;53.596;22.520;2023-08-30T20:40:21;10.27;;;6.10;;
20399;SDS011;10359;53.596;22.520;2023-08-30T20:42:51;8.43;;;6.87;;
20399;SDS011;10359;53.596;22.520;2023-08-30T20:45:21;9.93;;;6.53;;
20399;SDS011;10359;53.596;22.520;2023-08-30T20:47:54;13.97;;;6.87;;
20399;SDS011;10359;53.596;22.520;2023-08-30T20:50:24;9.27;;;6.93;;
20399;SDS011;10359;53.596;22.520;2023-08-30T20:52:57;13.67;;;6.83;;
20399;SDS011;10359;53.596;22.520;2023-08-30T20:55:28;11.97;;;7.63;;
20399;SDS011;10359;53.596;22.520;2023-08-30T20:58:06;11.80;;;7.00;;
20399;SDS011;10359;53.596;22.520;2023-08-30T21:00:36;13.20;;;7.50;;
20399;SDS011;10359;53.596;22.520;2023-08-30T21:03:06;10.33;;;6.97;;
20399;SDS011;10359;53.596;22.520;2023-08-30T21:05:36;11.47;;;7.40;;
20399;SDS011;10359;53.596;22.520;2023-08-30T21:08:07;11.77;;;7.33;;